sensor_id;sensor_type;location;lat;lon;timestamp;pressure;altitude;pressure_sealevel;temperature;humidity
22206;BME280;11272;50.104;8.754;2023-03-26T00:00:41;99954.84;;;9.83;69.47
22206;BME280;11272;50.104;8.754;2023-03-26T00:03:12;99956.59;;;9.84;69.15
22206;BME280;11272;50.104;8.754;2023-03-26T00:05:38;99951.25;;;9.86;68.42
22206;BME280;11272;50.104;8.754;2023-03-26T00:08:05;99945.13;;;9.84;69.33
22206;BME280;11272;50.104;8.754;2023-03-26T00:10:35;99954.78;;;9.86;69.01
22206;BME280;11272;50.104;8.754;2023-03-26T00:13:02;99954.78;;;9.86;69.00
22206;BME280;11272;50.104;8.754;2023-03-26T00:15:27;99961.88;;;9.86;68.77
22206;BME280;11272;50.104;8.754;2023-03-26T00:17:53;99965.41;;;9.86;68.82
22206;BME280;11272;50.104;8.754;2023-03-26T00:20:21;99955.59;;;9.88;68.91
22206;BME280;11272;50.104;8.754;2023-03-26T00:22:47;99946.72;;;9.91;69.09
22206;BME280;11272;50.104;8.754;2023-03-26T00:25:13;99957.22;;;9.94;68.98
22206;BME280;11272;50.104;8.754;2023-03-26T00:27:39;99954.53;;;9.95;69.37
22206;BME280;11272;50.104;8.754;2023-03-26T00:30:05;99948.34;;;9.95;68.88
22206;BME280;11272;50.104;8.754;2023-03-26T00:32:31;99952.78;;;9.94;69.68
22206;BME280;11272;50.104;8.754;2023-03-26T00:34:57;99961.59;;;9.96;68.92
22206;BME280;11272;50.104;8.754;2023-03-26T00:37:23;99954.53;;;9.95;69.34
22206;BME280;11272;50.104;8.754;2023-03-26T00:39:52;99953.72;;;9.93;69.32
22206;BME280;11272;50.104;8.754;2023-03-26T00:42:19;99967.97;;;9.89;69.53
22206;BME280;11272;50.104;8.754;2023-03-26T00:44:47;99962.72;;;9.88;69.78
22206;BME280;11272;50.104;8.754;2023-03-26T00:47:15;99965.41;;;9.86;69.84
22206;BME280;11272;50.104;8.754;2023-03-26T00:49:41;99973.34;;;9.86;69.51
22206;BME280;11272;50.104;8.754;2023-03-26T00:52:06;99965.41;;;9.86;69.73
22206;BME280;11272;50.104;8.754;2023-03-26T00:54:33;99968.03;;;9.86;69.76
22206;BME280;11272;50.104;8.754;2023-03-26T00:56:59;99961.91;;;9.84;69.67
22206;BME280;11272;50.104;8.754;2023-03-26T00:59:25;99960.09;;;9.86;70.17
22206;BME280;11272;50.104;8.754;2023-03-26T01:01:55;99948.63;;;9.86;69.96
22206;BME280;11272;50.104;8.754;2023-03-26T01:04:26;99944.22;;;9.85;69.36
22206;BME280;11272;50.104;8.754;2023-03-26T01:06:56;99944.25;;;9.83;70.07
22206;BME280;11272;50.104;8.754;2023-03-26T01:09:33;99938.16;;;9.80;70.48
22206;BME280;11272;50.104;8.754;2023-03-26T01:12:02;99935.53;;;9.78;70.22
22206;BME280;11272;50.104;8.754;2023-03-26T01:14:29;99932.13;;;9.75;70.02
22206;BME280;11272;50.104;8.754;2023-03-26T01:16:57;99929.56;;;9.71;70.18
22206;BME280;11272;50.104;8.754;2023-03-26T01:19:32;99923.44;;;9.68;69.94
22206;BME280;11272;50.104;8.754;2023-03-26T01:22:04;99924.41;;;9.65;70.25
22206;BME280;11272;50.104;8.754;2023-03-26T01:24:30;99923.59;;;9.62;70.18
22206;BME280;11272;50.104;8.754;2023-03-26T01:30:04;99913.25;;;9.53;70.72
22206;BME280;11272;50.104;8.754;2023-03-26T01:35:55;99904.56;;;9.46;70.22
22206;BME280;11272;50.104;8.754;2023-03-26T01:38:46;99903.81;;;9.41;70.76
22206;BME280;11272;50.104;8.754;2023-03-26T01:44:01;99908.25;;;9.41;70.85
22206;BME280;11272;50.104;8.754;2023-03-26T01:46:31;99895.00;;;9.41;70.84
22206;BME280;11272;50.104;8.754;2023-03-26T01:49:04;99897.63;;;9.41;70.77
22206;BME280;11272;50.104;8.754;2023-03-26T01:51:34;99898.56;;;9.40;70.50
22206;BME280;11272;50.104;8.754;2023-03-26T01:54:02;99887.13;;;9.38;71.18
22206;BME280;11272;50.104;8.754;2023-03-26T01:59:51;99884.47;;;9.38;71.16
22206;BME280;11272;50.104;8.754;2023-03-26T02:08:18;99882.56;;;9.44;71.61
22206;BME280;11272;50.104;8.754;2023-03-26T02:10:56;99876.28;;;9.47;71.75
22206;BME280;11272;50.104;8.754;2023-03-26T02:14:16;99864.75;;;9.49;71.09
22206;BME280;11272;50.104;8.754;2023-03-26T02:16:42;99861.19;;;9.50;71.26
22206;BME280;11272;50.104;8.754;2023-03-26T02:19:12;99856.78;;;9.51;71.29
22206;BME280;11272;50.104;8.754;2023-03-26T02:21:41;99842.69;;;9.49;70.99
22206;BME280;11272;50.104;8.754;2023-03-26T02:24:07;99848.91;;;9.46;71.36
22206;BME280;11272;50.104;8.754;2023-03-26T02:26:35;99848.03;;;9.46;71.32
22206;BME280;11272;50.104;8.754;2023-03-26T02:29:12;99842.81;;;9.44;71.91
22206;BME280;11272;50.104;8.754;2023-03-26T02:31:42;99841.94;;;9.44;71.56
22206;BME280;11272;50.104;8.754;2023-03-26T02:34:10;99835.72;;;9.45;72.00
22206;BME280;11272;50.104;8.754;2023-03-26T02:36:38;99831.31;;;9.45;71.95
22206;BME280;11272;50.104;8.754;2023-03-26T02:39:04;99821.47;;;9.49;72.02
22206;BME280;11272;50.104;8.754;2023-03-26T02:41:33;99817.03;;;9.51;71.56
22206;BME280;11272;50.104;8.754;2023-03-26T02:44:08;99810.78;;;9.52;72.08
22206;BME280;11272;50.104;8.754;2023-03-26T02:46:52;99808.09;;;9.53;71.73
22206;BME280;11272;50.104;8.754;2023-03-26T02:49:46;99808.09;;;9.53;71.93
22206;BME280;11272;50.104;8.754;2023-03-26T02:52:19;99806.31;;;9.54;71.54
22206;BME280;11272;50.104;8.754;2023-03-26T02:54:47;99808.06;;;9.55;71.88
22206;BME280;11272;50.104;8.754;2023-03-26T02:57:18;99804.50;;;9.56;71.93
22206;BME280;11272;50.104;8.754;2023-03-26T03:00:03;99802.63;;;9.59;72.03
22206;BME280;11272;50.104;8.754;2023-03-26T03:02:35;99805.25;;;9.61;71.67
22206;BME280;11272;50.104;8.754;2023-03-26T03:05:24;99804.25;;;9.65;72.22
22206;BME280;11272;50.104;8.754;2023-03-26T03:08:20;99802.47;;;9.65;71.64
22206;BME280;11272;50.104;8.754;2023-03-26T03:11:24;99801.59;;;9.65;71.52
22206;BME280;11272;50.104;8.754;2023-03-26T03:13:51;99792.75;;;9.66;71.89
22206;BME280;11272;50.104;8.754;2023-03-26T03:16:28;99798.94;;;9.65;71.72
22206;BME280;11272;50.104;8.754;2023-03-26T03:18:55;99796.28;;;9.65;71.28
22206;BME280;11272;50.104;8.754;2023-03-26T03:21:26;99799.75;;;9.67;71.86
22206;BME280;11272;50.104;8.754;2023-03-26T03:23:53;99790.03;;;9.67;71.54
22206;BME280;11272;50.104;8.754;2023-03-26T03:26:23;99787.44;;;9.66;71.59
22206;BME280;11272;50.104;8.754;2023-03-26T03:28:57;99790.91;;;9.68;71.82
22206;BME280;11272;50.104;8.754;2023-03-26T03:31:24;99783.78;;;9.70;71.37
22206;BME280;11272;50.104;8.754;2023-03-26T03:33:52;99785.56;;;9.69;71.55
22206;BME280;11272;50.104;8.754;2023-03-26T03:36:21;99773.19;;;9.70;71.58
22206;BME280;11272;50.104;8.754;2023-03-26T03:38:53;99767.03;;;9.68;71.55
22206;BME280;11272;50.104;8.754;2023-03-26T03:41:20;99766.16;;;9.67;71.89
22206;BME280;11272;50.104;8.754;2023-03-26T03:43:46;99762.75;;;9.64;72.11
22206;BME280;11272;50.104;8.754;2023-03-26T03:46:16;99758.41;;;9.61;71.77
22206;BME280;11272;50.104;8.754;2023-03-26T03:48:46;99755.75;;;9.61;72.51
22206;BME280;11272;50.104;8.754;2023-03-26T03:51:19;99755.75;;;9.61;72.47
22206;BME280;11272;50.104;8.754;2023-03-26T03:54:08;99750.50;;;9.60;72.40
22206;BME280;11272;50.104;8.754;2023-03-26T03:56:54;99753.13;;;9.61;72.56
22206;BME280;11272;50.104;8.754;2023-03-26T03:59:33;99735.47;;;9.60;72.59
22206;BME280;11272;50.104;8.754;2023-03-26T04:02:03;99743.44;;;9.59;73.03
22206;BME280;11272;50.104;8.754;2023-03-26T04:04:35;99726.81;;;9.54;72.46
22206;BME280;11272;50.104;8.754;2023-03-26T04:07:04;99716.22;;;9.54;73.17
22206;BME280;11272;50.104;8.754;2023-03-26T04:10:07;99710.19;;;9.49;73.44
22206;BME280;11272;50.104;8.754;2023-03-26T04:12:51;99708.53;;;9.45;73.45
22206;BME280;11272;50.104;8.754;2023-03-26T04:15:20;99724.50;;;9.42;74.17
22206;BME280;11272;50.104;8.754;2023-03-26T04:17:46;99722.75;;;9.41;74.51
22206;BME280;11272;50.104;8.754;2023-03-26T04:20:15;99723.63;;;9.41;74.79
22206;BME280;11272;50.104;8.754;2023-03-26T04:22:43;99721.84;;;9.42;75.79
22206;BME280;11272;50.104;8.754;2023-03-26T04:25:14;99719.25;;;9.40;75.64
22206;BME280;11272;50.104;8.754;2023-03-26T04:27:49;99717.53;;;9.39;76.42
22206;BME280;11272;50.104;8.754;2023-03-26T04:30:39;99707.00;;;9.36;76.42
22206;BME280;11272;50.104;8.754;2023-03-26T04:33:22;99701.84;;;9.32;76.88
22206;BME280;11272;50.104;8.754;2023-03-26T04:35:50;99697.56;;;9.26;77.35
22206;BME280;11272;50.104;8.754;2023-03-26T04:38:17;99695.06;;;9.21;77.73
22206;BME280;11272;50.104;8.754;2023-03-26T04:40:50;99698.72;;;9.17;78.67
22206;BME280;11272;50.104;8.754;2023-03-26T04:43:31;99689.94;;;9.15;78.99
22206;BME280;11272;50.104;8.754;2023-03-26T04:46:21;99676.72;;;9.14;79.11
22206;BME280;11272;50.104;8.754;2023-03-26T04:49:02;99682.09;;;9.12;80.15
22206;BME280;11272;50.104;8.754;2023-03-26T04:51:35;99673.25;;;9.12;80.64
22206;BME280;11272;50.104;8.754;2023-03-26T04:54:19;99668.84;;;9.12;80.88
22206;BME280;11272;50.104;8.754;2023-03-26T04:57:02;99653.84;;;9.11;81.35
22206;BME280;11272;50.104;8.754;2023-03-26T04:59:38;99652.06;;;9.12;81.10
22206;BME280;11272;50.104;8.754;2023-03-26T05:02:10;99647.66;;;9.12;81.92
22206;BME280;11272;50.104;8.754;2023-03-26T05:04:45;99648.56;;;9.11;81.63
22206;BME280;11272;50.104;8.754;2023-03-26T05:07:16;99646.84;;;9.09;82.06
22206;BME280;11272;50.104;8.754;2023-03-26T05:09:46;99645.97;;;9.08;82.40
22206;BME280;11272;50.104;8.754;2023-03-26T05:12:14;99634.47;;;9.09;82.71
22206;BME280;11272;50.104;8.754;2023-03-26T05:15:01;99631.81;;;9.09;82.97
22206;BME280;11272;50.104;8.754;2023-03-26T05:17:59;99633.53;;;9.12;83.32
22206;BME280;11272;50.104;8.754;2023-03-26T05:20:39;99626.38;;;9.15;83.48
22206;BME280;11272;50.104;8.754;2023-03-26T05:23:07;99619.25;;;9.17;83.25
22206;BME280;11272;50.104;8.754;2023-03-26T05:25:36;99612.97;;;9.20;83.95
22206;BME280;11272;50.104;8.754;2023-03-26T05:28:04;99605.00;;;9.21;84.25
22206;BME280;11272;50.104;8.754;2023-03-26T05:30:52;99584.69;;;9.22;83.72
22206;BME280;11272;50.104;8.754;2023-03-26T05:33:21;99579.28;;;9.25;84.25
22206;BME280;11272;50.104;8.754;2023-03-26T05:36:04;99573.03;;;9.27;84.25
22206;BME280;11272;50.104;8.754;2023-03-26T05:38:34;99574.72;;;9.30;84.26
22206;BME280;11272;50.104;8.754;2023-03-26T05:41:06;99573.03;;;9.27;84.50
22206;BME280;11272;50.104;8.754;2023-03-26T05:43:34;99563.31;;;9.28;84.51
22206;BME280;11272;50.104;8.754;2023-03-26T05:46:10;99564.97;;;9.30;84.50
22206;BME280;11272;50.104;8.754;2023-03-26T05:48:36;99558.78;;;9.32;84.52
22206;BME280;11272;50.104;8.754;2023-03-26T05:51:03;99564.00;;;9.35;84.21
22206;BME280;11272;50.104;8.754;2023-03-26T05:53:38;99555.97;;;9.36;84.43
22206;BME280;11272;50.104;8.754;2023-03-26T05:56:23;99550.66;;;9.38;84.61
22206;BME280;11272;50.104;8.754;2023-03-26T05:59:13;99548.81;;;9.40;84.07
22206;BME280;11272;50.104;8.754;2023-03-26T06:02:19;99531.94;;;9.42;84.20
22206;BME280;11272;50.104;8.754;2023-03-26T06:05:04;99527.41;;;9.46;83.96
22206;BME280;11272;50.104;8.754;2023-03-26T06:07:56;99550.28;;;9.50;84.34
22206;BME280;11272;50.104;8.754;2023-03-26T06:10:38;99558.22;;;9.50;84.21
22206;BME280;11272;50.104;8.754;2023-03-26T06:13:04;99543.28;;;9.47;83.26
22206;BME280;11272;50.104;8.754;2023-03-26T06:15:30;99541.50;;;9.48;83.61
22206;BME280;11272;50.104;8.754;2023-03-26T06:18:01;99538.84;;;9.48;83.55
22206;BME280;11272;50.104;8.754;2023-03-26T06:20:35;99537.06;;;9.48;83.25
22206;BME280;11272;50.104;8.754;2023-03-26T06:23:08;99529.16;;;9.47;82.87
22206;BME280;11272;50.104;8.754;2023-03-26T06:26:03;99520.25;;;9.49;82.97
22206;BME280;11272;50.104;8.754;2023-03-26T06:28:47;99506.91;;;9.52;82.98
22206;BME280;11272;50.104;8.754;2023-03-26T06:31:46;99508.59;;;9.55;82.30
22206;BME280;11272;50.104;8.754;2023-03-26T06:34:18;99504.91;;;9.59;82.66
22206;BME280;11272;50.104;8.754;2023-03-26T06:36:47;99488.00;;;9.63;82.44
22206;BME280;11272;50.104;8.754;2023-03-26T06:39:13;99485.25;;;9.66;82.63
22206;BME280;11272;50.104;8.754;2023-03-26T06:41:49;99497.44;;;9.71;82.39
22206;BME280;11272;50.104;8.754;2023-03-26T06:44:45;99478.72;;;9.76;82.13
22206;BME280;11272;50.104;8.754;2023-03-26T06:47:29;99471.53;;;9.80;81.73
22206;BME280;11272;50.104;8.754;2023-03-26T06:50:30;99464.31;;;9.83;82.20
22206;BME280;11272;50.104;8.754;2023-03-26T06:53:05;99473.84;;;9.89;81.74
22206;BME280;11272;50.104;8.754;2023-03-26T06:55:41;99471.09;;;9.93;81.47
22206;BME280;11272;50.104;8.754;2023-03-26T06:58:26;99467.41;;;9.97;81.14
22206;BME280;11272;50.104;8.754;2023-03-26T07:01:10;99467.34;;;9.99;80.89
22206;BME280;11272;50.104;8.754;2023-03-26T07:03:55;99467.56;;;9.93;80.64
22206;BME280;11272;50.104;8.754;2023-03-26T07:06:39;99470.25;;;9.91;80.47
22206;BME280;11272;50.104;8.754;2023-03-26T07:09:23;99464.81;;;9.94;80.57
22206;BME280;11272;50.104;8.754;2023-03-26T07:12:13;99462.88;;;9.99;80.22
22206;BME280;11272;50.104;8.754;2023-03-26T07:15:02;99459.44;;;9.97;79.73
22206;BME280;11272;50.104;8.754;2023-03-26T07:18:00;99453.31;;;9.95;79.42
22206;BME280;11272;50.104;8.754;2023-03-26T07:20:37;99463.91;;;9.95;79.60
22206;BME280;11272;50.104;8.754;2023-03-26T07:23:09;99458.56;;;9.97;79.72
22206;BME280;11272;50.104;8.754;2023-03-26T07:25:53;99455.97;;;9.95;80.00
22206;BME280;11272;50.104;8.754;2023-03-26T07:28:38;99453.31;;;9.95;79.51
22206;BME280;11272;50.104;8.754;2023-03-26T07:34:44;99441.91;;;9.93;79.21
22206;BME280;11272;50.104;8.754;2023-03-26T07:47:32;99426.97;;;9.40;83.09
22206;BME280;11272;50.104;8.754;2023-03-26T07:50:22;99417.53;;;9.29;84.23
22206;BME280;11272;50.104;8.754;2023-03-26T07:53:22;99418.75;;;9.19;85.71
22206;BME280;11272;50.104;8.754;2023-03-26T07:56:17;99415.25;;;9.19;86.70
22206;BME280;11272;50.104;8.754;2023-03-26T08:02:21;99402.16;;;9.14;87.75
22206;BME280;11272;50.104;8.754;2023-03-26T08:21:51;99384.03;;;9.02;93.26
22206;BME280;11272;50.104;8.754;2023-03-26T08:24:37;99377.69;;;9.08;93.71
22206;BME280;11272;50.104;8.754;2023-03-26T08:30:19;99368.34;;;9.22;94.66
22206;BME280;11272;50.104;8.754;2023-03-26T08:33:12;99372.59;;;9.28;94.71
22206;BME280;11272;50.104;8.754;2023-03-26T08:35:38;99370.09;;;9.23;94.72
22206;BME280;11272;50.104;8.754;2023-03-26T08:38:17;99372.75;;;9.23;95.26
22206;BME280;11272;50.104;8.754;2023-03-26T09:00:29;99376.91;;;9.30;98.72
22206;BME280;11272;50.104;8.754;2023-03-26T09:03:45;99373.38;;;9.30;99.12
22206;BME280;11272;50.104;8.754;2023-03-26T09:06:49;99375.28;;;9.26;99.29
22206;BME280;11272;50.104;8.754;2023-03-26T09:15:26;99347.72;;;9.32;100.00
22206;BME280;11272;50.104;8.754;2023-03-26T09:32:09;99339.44;;;9.16;100.00
22206;BME280;11272;50.104;8.754;2023-03-26T09:41:24;99324.41;;;9.17;100.00
22206;BME280;11272;50.104;8.754;2023-03-26T09:52:45;99307.03;;;9.08;100.00
22206;BME280;11272;50.104;8.754;2023-03-26T09:58:18;99310.09;;;8.96;100.00
22206;BME280;11272;50.104;8.754;2023-03-26T10:00:57;99305.72;;;8.95;100.00
22206;BME280;11272;50.104;8.754;2023-03-26T10:15:56;99295.50;;;9.36;100.00
22206;BME280;11272;50.104;8.754;2023-03-26T10:18:30;99300.78;;;9.36;100.00
22206;BME280;11272;50.104;8.754;2023-03-26T10:24:02;99287.28;;;9.18;100.00
22206;BME280;11272;50.104;8.754;2023-03-26T10:29:29;99285.09;;;9.29;100.00
22206;BME280;11272;50.104;8.754;2023-03-26T10:37:37;99270.31;;;9.49;100.00
22206;BME280;11272;50.104;8.754;2023-03-26T10:40:15;99261.06;;;10.07;100.00
22206;BME280;11272;50.104;8.754;2023-03-26T10:42:54;99266.25;;;10.77;100.00
22206;BME280;11272;50.104;8.754;2023-03-26T10:45:39;99249.16;;;11.45;100.00
22206;BME280;11272;50.104;8.754;2023-03-26T10:48:26;99243.00;;;12.22;100.00
22206;BME280;11272;50.104;8.754;2023-03-26T10:57:37;99231.63;;;12.37;99.39
22206;BME280;11272;50.104;8.754;2023-03-26T11:00:19;99233.06;;;12.44;99.31
22206;BME280;11272;50.104;8.754;2023-03-26T11:03:10;99237.97;;;12.16;97.50
22206;BME280;11272;50.104;8.754;2023-03-26T11:08:36;99234.50;;;12.33;98.49
22206;BME280;11272;50.104;8.754;2023-03-26T11:13:48;99221.28;;;12.12;97.57
22206;BME280;11272;50.104;8.754;2023-03-26T11:18:59;99207.16;;;11.92;96.11
22206;BME280;11272;50.104;8.754;2023-03-26T11:21:38;99205.88;;;11.81;96.93
22206;BME280;11272;50.104;8.754;2023-03-26T11:27:26;99202.19;;;11.45;94.14
22206;BME280;11272;50.104;8.754;2023-03-26T11:30:47;99203.16;;;11.24;93.38
22206;BME280;11272;50.104;8.754;2023-03-26T11:32:56;99204.81;;;10.86;92.61
22206;BME280;11272;50.104;8.754;2023-03-26T11:35:31;99208.09;;;10.71;95.12
22206;BME280;11272;50.104;8.754;2023-03-26T11:38:48;99211.06;;;10.63;96.42
22206;BME280;11272;50.104;8.754;2023-03-26T11:40:51;99209.91;;;10.48;96.14
22206;BME280;11272;50.104;8.754;2023-03-26T11:43:48;99202.94;;;10.46;97.88
22206;BME280;11272;50.104;8.754;2023-03-26T11:46:20;99227.13;;;10.38;98.90
22206;BME280;11272;50.104;8.754;2023-03-26T11:48:52;99221.34;;;10.50;100.00
22206;BME280;11272;50.104;8.754;2023-03-26T11:51:40;99217.00;;;10.70;100.00
22206;BME280;11272;50.104;8.754;2023-03-26T11:54:06;99209.13;;;10.88;100.00
22206;BME280;11272;50.104;8.754;2023-03-26T11:56:56;99207.00;;;11.17;100.00
22206;BME280;11272;50.104;8.754;2023-03-26T11:59:26;99203.38;;;11.38;100.00
22206;BME280;11272;50.104;8.754;2023-03-26T12:04:37;99182.00;;;12.53;100.00
22206;BME280;11272;50.104;8.754;2023-03-26T12:07:13;99175.31;;;13.15;100.00
22206;BME280;11272;50.104;8.754;2023-03-26T12:09:50;99169.19;;;13.79;100.00
22206;BME280;11272;50.104;8.754;2023-03-26T12:12:17;99165.06;;;13.89;100.00
22206;BME280;11272;50.104;8.754;2023-03-26T12:14:43;99161.91;;;13.98;100.00
22206;BME280;11272;50.104;8.754;2023-03-26T12:17:14;99155.78;;;13.96;99.47
22206;BME280;11272;50.104;8.754;2023-03-26T12:19:49;99163.34;;;13.72;97.17
22206;BME280;11272;50.104;8.754;2023-03-26T12:22:36;99169.28;;;13.29;95.20
22206;BME280;11272;50.104;8.754;2023-03-26T12:25:15;99172.69;;;12.79;92.85
22206;BME280;11272;50.104;8.754;2023-03-26T12:27:56;99166.16;;;12.33;93.72
22206;BME280;11272;50.104;8.754;2023-03-26T12:30:26;99174.31;;;11.93;95.61
22206;BME280;11272;50.104;8.754;2023-03-26T12:32:56;99173.81;;;11.85;97.25
22206;BME280;11272;50.104;8.754;2023-03-26T12:35:27;99169.66;;;11.79;98.88
22206;BME280;11272;50.104;8.754;2023-03-26T12:38:12;99165.63;;;11.89;100.00
22206;BME280;11272;50.104;8.754;2023-03-26T12:40:38;99157.91;;;12.20;100.00
22206;BME280;11272;50.104;8.754;2023-03-26T12:43:27;99156.47;;;12.66;100.00
22206;BME280;11272;50.104;8.754;2023-03-26T12:45:54;99151.28;;;13.32;100.00
22206;BME280;11272;50.104;8.754;2023-03-26T12:48:24;99146.84;;;13.81;100.00
22206;BME280;11272;50.104;8.754;2023-03-26T12:51:04;99138.19;;;14.55;100.00
22206;BME280;11272;50.104;8.754;2023-03-26T12:53:58;99130.78;;;14.60;97.73
22206;BME280;11272;50.104;8.754;2023-03-26T12:56:40;99132.53;;;14.14;93.25
22206;BME280;11272;50.104;8.754;2023-03-26T12:59:26;99138.22;;;13.92;95.71
22206;BME280;11272;50.104;8.754;2023-03-26T13:02:29;99122.56;;;14.02;96.97
22206;BME280;11272;50.104;8.754;2023-03-26T13:13:42;99100.94;;;16.36;93.14
22206;BME280;11272;50.104;8.754;2023-03-26T13:24:29;99105.97;;;15.02;91.83
22206;BME280;11272;50.104;8.754;2023-03-26T13:27:04;99111.50;;;14.85;92.81
22206;BME280;11272;50.104;8.754;2023-03-26T13:32:36;99094.50;;;14.56;92.97
22206;BME280;11272;50.104;8.754;2023-03-26T13:38:13;99094.13;;;14.01;93.29
22206;BME280;11272;50.104;8.754;2023-03-26T13:43:47;99082.94;;;13.63;94.01
22206;BME280;11272;50.104;8.754;2023-03-26T13:46:54;99074.66;;;13.03;92.61
22206;BME280;11272;50.104;8.754;2023-03-26T13:49:31;99074.06;;;12.81;94.30
22206;BME280;11272;50.104;8.754;2023-03-26T13:52:17;99100.16;;;12.57;92.50
22206;BME280;11272;50.104;8.754;2023-03-26T13:54:48;99113.19;;;12.10;94.73
22206;BME280;11272;50.104;8.754;2023-03-26T13:57:40;99090.00;;;11.95;96.95
22206;BME280;11272;50.104;8.754;2023-03-26T14:00:24;99089.72;;;11.82;97.91
22206;BME280;11272;50.104;8.754;2023-03-26T14:03:30;99084.88;;;11.71;98.14
22206;BME280;11272;50.104;8.754;2023-03-26T14:06:03;99086.41;;;11.58;98.18
22206;BME280;11272;50.104;8.754;2023-03-26T14:08:42;99100.91;;;11.51;98.12
22206;BME280;11272;50.104;8.754;2023-03-26T14:11:22;99109.72;;;11.33;97.81
22206;BME280;11272;50.104;8.754;2023-03-26T14:14:17;99106.50;;;11.26;100.00
22206;BME280;11272;50.104;8.754;2023-03-26T14:16:54;99093.63;;;11.75;100.00
22206;BME280;11272;50.104;8.754;2023-03-26T14:31:32;99071.56;;;13.28;99.44
22206;BME280;11272;50.104;8.754;2023-03-26T14:36:17;99064.28;;;13.14;99.78
22206;BME280;11272;50.104;8.754;2023-03-26T14:38:58;99062.63;;;12.79;98.23
22206;BME280;11272;50.104;8.754;2023-03-26T14:41:45;99055.31;;;12.49;98.96
22206;BME280;11272;50.104;8.754;2023-03-26T14:47:16;99059.22;;;12.42;100.00
22206;BME280;11272;50.104;8.754;2023-03-26T14:50:18;99058.03;;;12.65;100.00
22206;BME280;11272;50.104;8.754;2023-03-26T14:52:52;99044.56;;;13.18;100.00
22206;BME280;11272;50.104;8.754;2023-03-26T14:55:49;99034.94;;;13.94;100.00
22206;BME280;11272;50.104;8.754;2023-03-26T15:07:11;99021.06;;;14.91;90.34
22206;BME280;11272;50.104;8.754;2023-03-26T15:12:26;99008.09;;;14.11;90.25
22206;BME280;11272;50.104;8.754;2023-03-26T15:24:02;99015.38;;;13.15;88.73
22206;BME280;11272;50.104;8.754;2023-03-26T15:29:29;99002.69;;;13.67;88.95
22206;BME280;11272;50.104;8.754;2023-03-26T15:38:35;99026.50;;;13.23;82.61
22206;BME280;11272;50.104;8.754;2023-03-26T15:41:31;99027.47;;;13.05;82.03
22206;BME280;11272;50.104;8.754;2023-03-26T15:44:08;99038.13;;;13.05;82.85
22206;BME280;11272;50.104;8.754;2023-03-26T15:49:08;99050.06;;;12.98;79.15
22206;BME280;11272;50.104;8.754;2023-03-26T15:51:49;99049.34;;;12.94;79.31
22206;BME280;11272;50.104;8.754;2023-03-26T15:54:27;99062.22;;;12.86;77.82
22206;BME280;11272;50.104;8.754;2023-03-26T16:02:42;99115.81;;;12.29;75.57
22206;BME280;11272;50.104;8.754;2023-03-26T16:05:44;99142.28;;;12.13;75.00
22206;BME280;11272;50.104;8.754;2023-03-26T16:08:24;99157.94;;;11.83;74.90
22206;BME280;11272;50.104;8.754;2023-03-26T16:10:56;99163.41;;;11.41;75.33
22206;BME280;11272;50.104;8.754;2023-03-26T16:15:53;99170.22;;;10.67;78.11
22206;BME280;11272;50.104;8.754;2023-03-26T16:32:14;99162.38;;;9.77;84.81
22206;BME280;11272;50.104;8.754;2023-03-26T16:45:41;99185.97;;;9.37;89.78
22206;BME280;11272;50.104;8.754;2023-03-26T16:48:33;99193.97;;;9.35;89.88
22206;BME280;11272;50.104;8.754;2023-03-26T16:51:08;99185.28;;;9.32;90.82
22206;BME280;11272;50.104;8.754;2023-03-26T16:54:42;99185.31;;;9.30;91.37
22206;BME280;11272;50.104;8.754;2023-03-26T16:57:24;99184.78;;;9.20;92.30
22206;BME280;11272;50.104;8.754;2023-03-26T17:03:40;99183.19;;;9.16;93.51
22206;BME280;11272;50.104;8.754;2023-03-26T17:06:28;99185.00;;;9.14;93.40
22206;BME280;11272;50.104;8.754;2023-03-26T17:14:27;99186.19;;;9.30;95.46
22206;BME280;11272;50.104;8.754;2023-03-26T17:25:39;99191.69;;;9.49;96.46
22206;BME280;11272;50.104;8.754;2023-03-26T17:28:31;99191.88;;;9.45;96.05
22206;BME280;11272;50.104;8.754;2023-03-26T17:33:31;99196.38;;;9.41;97.48
22206;BME280;11272;50.104;8.754;2023-03-26T17:36:30;99200.56;;;9.48;97.49
22206;BME280;11272;50.104;8.754;2023-03-26T17:42:24;99209.31;;;9.50;97.20
22206;BME280;11272;50.104;8.754;2023-03-26T17:44:52;99206.53;;;9.53;98.09
22206;BME280;11272;50.104;8.754;2023-03-26T17:49:59;99199.63;;;9.49;97.52
22206;BME280;11272;50.104;8.754;2023-03-26T17:52:45;99201.41;;;9.49;97.48
22206;BME280;11272;50.104;8.754;2023-03-26T17:55:19;99212.13;;;9.46;97.41
22206;BME280;11272;50.104;8.754;2023-03-26T17:58:06;99218.63;;;9.37;97.16
22206;BME280;11272;50.104;8.754;2023-03-26T18:00:44;99223.97;;;9.36;98.21
22206;BME280;11272;50.104;8.754;2023-03-26T18:03:26;99223.06;;;9.37;98.68
22206;BME280;11272;50.104;8.754;2023-03-26T18:06:04;99221.09;;;9.42;98.82
22206;BME280;11272;50.104;8.754;2023-03-26T18:11:46;99233.00;;;9.55;99.16
22206;BME280;11272;50.104;8.754;2023-03-26T18:16:58;99239.22;;;9.54;99.70
22206;BME280;11272;50.104;8.754;2023-03-26T18:19:25;99240.34;;;9.47;99.21
22206;BME280;11272;50.104;8.754;2023-03-26T18:22:02;99246.84;;;9.38;99.17
22206;BME280;11272;50.104;8.754;2023-03-26T18:24:35;99245.97;;;9.38;98.91
22206;BME280;11272;50.104;8.754;2023-03-26T18:27:09;99244.25;;;9.37;99.70
22206;BME280;11272;50.104;8.754;2023-03-26T18:29:36;99251.22;;;9.39;100.00
22206;BME280;11272;50.104;8.754;2023-03-26T18:34:36;99250.38;;;9.39;99.97
22206;BME280;11272;50.104;8.754;2023-03-26T18:37:15;99254.75;;;9.40;100.00
22206;BME280;11272;50.104;8.754;2023-03-26T20:42:33;99331.59;;;9.13;100.00
22206;BME280;11272;50.104;8.754;2023-03-26T20:45:01;99343.09;;;9.12;100.00
22206;BME280;11272;50.104;8.754;2023-03-26T20:47:26;99345.84;;;9.09;100.00
22206;BME280;11272;50.104;8.754;2023-03-26T20:49:52;99349.38;;;9.08;100.00
22206;BME280;11272;50.104;8.754;2023-03-26T20:52:18;99354.69;;;9.08;100.00
22206;BME280;11272;50.104;8.754;2023-03-26T20:54:44;99358.34;;;9.04;100.00
22206;BME280;11272;50.104;8.754;2023-03-26T20:57:10;99360.22;;;9.02;100.00
22206;BME280;11272;50.104;8.754;2023-03-26T20:59:37;99358.66;;;8.95;100.00
22206;BME280;11272;50.104;8.754;2023-03-26T21:02:03;99380.00;;;8.91;100.00